Time;durP1;ratioP1;P1;durP2;ratioP2;P2;SDS_P1;SDS_P2;PMS_P1;PMS_P2;Temp;Humidity;BMP_temperature;BMP_pressure;BME280_temperature;BME280_humidity;BME280_pressure;Samples;Min_cycle;Max_cycle;Signal;HPM_P1;HPM_P2
2022/09/24 00:02:05;;;;;;;4.80;3.90;;;17.30;89.90;;;;;;4882362;29;20441;-70
2022/09/24 00:04:35;;;;;;;4.60;3.90;;;17.30;90.00;;;;;;4903592;29;20439;-70
2022/09/24 00:07:01;;;;;;;5.23;4.00;;;17.40;90.00;;;;;;4993016;23;20714;-71
2022/09/24 00:09:31;;;;;;;4.37;3.63;;;17.40;90.00;;;;;;4968242;28;20436;-71
2022/09/24 00:11:59;;;;;;;5.40;3.87;;;17.40;90.10;;;;;;4970117;28;20472;-71
2022/09/24 00:14:27;;;;;;;5.33;3.30;;;17.40;90.10;;;;;;4964530;28;20433;-71
2022/09/24 00:16:53;;;;;;;6.10;4.00;;;17.30;90.00;;;;;;4938893;28;20644;-71
2022/09/24 00:19:19;;;;;;;5.00;4.00;;;17.30;90.00;;;;;;4954750;28;20424;-71
2022/09/24 00:21:48;;;;;;;5.87;4.50;;;17.30;90.10;;;;;;4941622;29;20465;-71
2022/09/24 00:27:04;;;;;;;4.17;3.70;;;17.30;90.00;;;;;;4936174;29;20868;-71
2022/09/24 00:29:34;;;;;;;6.90;4.47;;;17.30;90.00;;;;;;4962573;28;20437;-71
2022/09/24 00:32:03;;;;;;;4.90;4.40;;;17.30;90.10;;;;;;4944954;28;20991;-71
2022/09/24 00:34:32;;;;;;;5.47;4.10;;;17.30;90.20;;;;;;4931210;28;20421;-71
2022/09/24 00:36:58;;;;;;;4.70;3.83;;;17.30;90.20;;;;;;4945713;28;20418;-71
2022/09/24 00:39:31;;;;;;;4.63;3.50;;;17.30;90.20;;;;;;4944572;28;20458;-71
2022/09/24 00:42:02;;;;;;;4.20;3.50;;;17.30;90.20;;;;;;4963289;28;20477;-71
2022/09/24 00:44:43;;;;;;;5.60;3.90;;;17.30;90.20;;;;;;4944537;28;20512;-71
2022/09/24 00:47:20;;;;;;;4.00;3.60;;;17.30;90.20;;;;;;4953062;28;20477;-71
2022/09/24 00:49:49;;;;;;;7.00;4.50;;;17.30;90.20;;;;;;4931011;28;20625;-71
2022/09/24 00:52:18;;;;;;;9.43;4.60;;;17.30;90.30;;;;;;4933082;28;20821;-71
2022/09/24 00:54:46;;;;;;;5.27;4.03;;;17.30;90.30;;;;;;4971508;28;20461;-71
2022/09/24 00:57:13;;;;;;;6.03;4.00;;;17.30;90.40;;;;;;4966274;28;20431;-71
2022/09/24 00:59:43;;;;;;;4.93;3.80;;;17.30;90.30;;;;;;4965867;28;20917;-71
2022/09/24 01:02:11;;;;;;;6.67;4.20;;;17.30;90.30;;;;;;4975403;28;20468;-71
2022/09/24 01:04:37;;;;;;;7.03;4.23;;;17.30;90.30;;;;;;4950507;29;20621;-71
2022/09/24 01:07:03;;;;;;;4.87;4.23;;;17.20;90.30;;;;;;4937825;29;20569;-71
2022/09/24 01:09:33;;;;;;;5.63;4.63;;;17.30;90.30;;;;;;4961706;28;20495;-71
2022/09/24 01:12:21;;;;;;;6.07;4.10;;;17.30;90.30;;;;;;4941898;28;20448;-71
2022/09/24 01:15:29;;;;;;;5.10;4.57;;;17.30;90.40;;;;;;4974912;28;20806;-71
2022/09/24 01:18:14;;;;;;;5.17;4.30;;;17.30;90.50;;;;;;4915875;29;20804;-71
2022/09/24 01:20:43;;;;;;;5.43;4.80;;;17.30;90.50;;;;;;4941830;29;20460;-71
2022/09/24 01:23:21;;;;;;;6.13;4.27;;;17.20;90.40;;;;;;4923220;29;20422;-71
2022/09/24 01:26:18;;;;;;;5.60;4.73;;;17.20;90.50;;;;;;4936664;28;21008;-71
2022/09/24 01:29:06;;;;;;;5.47;4.10;;;17.20;90.50;;;;;;4975435;28;20499;-71
2022/09/24 01:31:45;;;;;;;10.37;5.40;;;17.20;90.50;;;;;;4938957;29;20453;-71
2022/09/24 01:34:18;;;;;;;6.17;4.43;;;17.20;90.50;;;;;;4957674;28;21243;-71
2022/09/24 01:36:45;;;;;;;7.90;3.60;;;17.20;90.60;;;;;;4958043;28;20457;-71
2022/09/24 01:39:13;;;;;;;5.03;4.30;;;17.20;90.60;;;;;;4955116;28;20817;-71
2022/09/24 01:41:43;;;;;;;9.10;4.40;;;17.20;90.60;;;;;;4934859;28;20428;-71
2022/09/24 01:44:12;;;;;;;6.43;4.23;;;17.20;90.70;;;;;;4957378;28;20483;-71
2022/09/24 01:46:41;;;;;;;7.63;4.73;;;17.20;90.60;;;;;;4957382;28;20445;-71
2022/09/24 01:49:10;;;;;;;4.10;3.70;;;17.20;90.60;;;;;;4939720;28;20469;-71
2022/09/24 01:51:48;;;;;;;5.33;4.10;;;17.20;90.50;;;;;;4958723;28;20463;-71
2022/09/24 01:54:29;;;;;;;5.43;4.23;;;17.20;90.60;;;;;;4940765;28;20816;-71
2022/09/24 01:57:06;;;;;;;5.63;4.90;;;17.20;90.60;;;;;;4974465;28;20779;-71
2022/09/24 01:59:43;;;;;;;4.50;4.10;;;17.20;91.00;;;;;;4952743;28;20458;-71
2022/09/24 02:02:14;;;;;;;7.30;4.87;;;17.20;90.60;;;;;;4945484;28;20427;-71
2022/09/24 02:04:48;;;;;;;4.70;4.30;;;17.20;90.70;;;;;;4952105;29;20923;-71
2022/09/24 02:07:51;;;;;;;5.07;4.23;;;17.20;90.70;;;;;;4922100;29;20512;-71
2022/09/24 02:10:21;;;;;;;5.70;4.60;;;17.20;90.80;;;;;;4913391;29;20487;-71
2022/09/24 02:12:57;;;;;;;6.00;4.30;;;17.20;90.80;;;;;;4966168;28;20431;-71
2022/09/24 02:15:27;;;;;;;5.27;4.47;;;17.20;90.80;;;;;;4955382;29;20428;-71
2022/09/24 02:17:59;;;;;;;4.97;4.57;;;17.20;90.80;;;;;;4938939;28;20472;-71
2022/09/24 02:20:30;;;;;;;3.90;3.50;;;17.20;90.90;;;;;;4962933;28;20492;-71
2022/09/24 02:23:03;;;;;;;4.80;4.30;;;17.20;90.90;;;;;;4951544;28;20866;-71
2022/09/24 02:25:47;;;;;;;6.77;4.83;;;17.20;90.90;;;;;;4974105;28;20453;-71
2022/09/24 02:28:25;;;;;;;6.70;3.87;;;17.20;91.00;;;;;;4973422;28;20986;-71
2022/09/24 02:31:04;;;;;;;5.93;4.60;;;17.20;91.00;;;;;;4976951;28;20469;-71
2022/09/24 02:36:23;;;;;;;5.87;4.47;;;17.20;91.00;;;;;;4954726;28;20461;-71
2022/09/24 02:38:54;;;;;;;4.60;4.00;;;17.20;91.00;;;;;;4940865;28;20493;-71
2022/09/24 02:41:23;;;;;;;4.90;4.03;;;17.20;90.90;;;;;;4941947;28;20464;-71
2022/09/24 02:43:52;;;;;;;5.97;5.00;;;17.10;90.90;;;;;;4973743;28;20510;-71
2022/09/24 02:46:18;;;;;;;4.93;4.43;;;17.10;90.90;;;;;;4958582;28;20502;-71
2022/09/24 02:48:47;;;;;;;5.00;4.50;;;17.10;90.90;;;;;;4956364;28;20460;-71
2022/09/24 02:51:15;;;;;;;5.50;3.87;;;17.10;91.00;;;;;;4944377;28;20917;-71
2022/09/24 02:53:50;;;;;;;6.57;4.50;;;17.10;91.00;;;;;;4941621;28;20430;-71
2022/09/24 02:56:18;;;;;;;5.40;4.03;;;17.10;91.00;;;;;;4940920;28;20441;-71
2022/09/24 02:58:44;;;;;;;7.60;4.63;;;17.10;91.00;;;;;;4955358;28;20815;-71
2022/09/24 03:01:10;;;;;;;6.80;4.33;;;17.10;91.00;;;;;;4925625;28;20512;-71
2022/09/24 03:03:38;;;;;;;5.23;3.83;;;17.10;91.00;;;;;;4956267;28;20181;-71
2022/09/24 03:06:05;;;;;;;5.33;4.20;;;17.10;91.00;;;;;;4972081;28;20441;-71
2022/09/24 03:08:31;;;;;;;5.40;4.67;;;17.10;91.00;;;;;;4956141;28;20464;-71
2022/09/24 03:11:00;;;;;;;4.93;4.20;;;17.10;91.00;;;;;;4941624;28;20797;-71
2022/09/24 03:13:26;;;;;;;5.30;4.80;;;17.10;91.00;;;;;;4988056;28;20783;-71
2022/09/24 03:15:53;;;;;;;7.30;4.37;;;17.10;91.00;;;;;;4942739;29;20493;-71
2022/09/24 03:18:21;;;;;;;6.30;4.77;;;17.10;91.10;;;;;;4954067;29;20440;-71
2022/09/24 03:20:57;;;;;;;4.53;3.90;;;17.10;91.00;;;;;;4949788;28;20434;-71
2022/09/24 03:23:26;;;;;;;9.90;5.30;;;17.10;91.10;;;;;;4946348;28;20528;-71
2022/09/24 03:25:54;;;;;;;6.03;4.50;;;17.10;91.20;;;;;;4923877;28;21004;-71
2022/09/24 03:28:20;;;;;;;5.10;4.20;;;17.10;91.20;;;;;;4940171;28;20625;-71
2022/09/24 03:31:01;;;;;;;5.07;4.40;;;17.10;91.10;;;;;;4986204;28;20420;-71
2022/09/24 03:33:42;;;;;;;7.10;4.63;;;17.10;91.10;;;;;;4952949;29;20804;-71
2022/09/24 03:36:19;;;;;;;4.60;4.17;;;17.10;91.10;;;;;;4934737;29;20452;-71
2022/09/24 03:38:57;;;;;;;5.20;4.70;;;17.10;91.20;;;;;;4968455;28;20417;-71
2022/09/24 03:41:29;;;;;;;6.53;5.17;;;17.10;91.20;;;;;;4951961;28;20795;-71
2022/09/24 03:44:02;;;;;;;5.73;4.30;;;17.10;91.20;;;;;;4936414;29;20488;-71
2022/09/24 03:46:28;;;;;;;6.30;5.20;;;17.10;91.20;;;;;;4954790;28;20976;-71
2022/09/24 03:49:01;;;;;;;6.70;4.70;;;17.00;91.10;;;;;;4972926;28;20404;-71
2022/09/24 03:51:33;;;;;;;5.47;4.30;;;17.00;91.10;;;;;;4957195;28;20412;-71
2022/09/24 03:54:02;;;;;;;4.83;4.33;;;17.10;91.10;;;;;;4972421;28;20960;-71
2022/09/24 03:56:32;;;;;;;4.77;4.13;;;17.00;91.20;;;;;;4955063;28;20262;-71
2022/09/24 03:59:01;;;;;;;6.23;4.73;;;17.00;91.20;;;;;;4971824;28;20424;-71
2022/09/24 04:01:32;;;;;;;5.80;4.60;;;17.00;91.20;;;;;;4939835;28;20479;-71
2022/09/24 04:03:59;;;;;;;7.50;4.90;;;17.00;91.20;;;;;;4955451;28;20908;-71
2022/09/24 04:06:26;;;;;;;5.00;4.50;;;17.00;91.20;;;;;;4954871;28;20485;-71
2022/09/24 04:08:51;;;;;;;5.20;4.40;;;17.00;91.20;;;;;;4921768;28;20868;-71
2022/09/24 04:11:24;;;;;;;6.27;4.77;;;17.00;91.30;;;;;;4937253;28;20177;-71
2022/09/24 04:13:50;;;;;;;6.60;4.70;;;17.00;91.30;;;;;;4936443;29;20927;-71
2022/09/24 04:16:19;;;;;;;6.70;4.77;;;17.00;91.20;;;;;;4969929;28;20452;-71
2022/09/24 04:18:49;;;;;;;5.07;4.50;;;17.00;91.20;;;;;;4955358;28;20780;-71
2022/09/24 04:21:15;;;;;;;4.97;4.47;;;17.00;91.30;;;;;;4956812;28;20461;-71
2022/09/24 04:23:46;;;;;;;5.33;4.80;;;17.00;91.30;;;;;;4971865;28;20422;-71
2022/09/24 04:26:16;;;;;;;5.50;5.00;;;17.00;91.30;;;;;;4943573;29;20452;-71
2022/09/24 04:28:43;;;;;;;5.57;5.07;;;17.00;91.20;;;;;;4956839;29;20479;-71
2022/09/24 04:31:09;;;;;;;5.07;4.50;;;17.00;91.10;;;;;;4954522;28;20460;-71
2022/09/24 04:33:37;;;;;;;5.13;4.53;;;17.00;91.20;;;;;;4943280;28;20833;-71
2022/09/24 04:36:05;;;;;;;5.20;4.70;;;17.00;91.20;;;;;;4961830;28;20449;-71
2022/09/24 04:38:34;;;;;;;7.60;4.80;;;17.00;91.20;;;;;;4924019;29;20484;-71
2022/09/24 04:41:05;;;;;;;5.77;4.93;;;17.00;91.20;;;;;;4940833;29;20475;-71
2022/09/24 04:43:33;;;;;;;5.40;4.90;;;17.00;91.20;;;;;;4974452;28;20435;-71
2022/09/24 04:46:00;;;;;;;4.93;4.43;;;17.00;91.30;;;;;;4975160;28;20621;-71
2022/09/24 04:48:29;;;;;;;5.07;4.40;;;17.00;91.30;;;;;;4975994;28;20980;-71
2022/09/24 04:50:57;;;;;;;6.60;5.10;;;17.00;91.40;;;;;;4943754;29;20512;-71
2022/09/24 04:53:26;;;;;;;5.07;4.57;;;17.00;91.30;;;;;;4956462;28;20424;-71
2022/09/24 04:55:54;;;;;;;6.70;5.47;;;17.00;91.30;;;;;;4928590;29;20541;-71
2022/09/24 04:58:22;;;;;;;6.10;5.03;;;17.00;91.30;;;;;;4957791;28;20522;-71
2022/09/24 05:00:50;;;;;;;5.80;4.97;;;17.00;91.30;;;;;;4975251;28;20432;-71
2022/09/24 05:03:21;;;;;;;6.07;5.43;;;17.00;91.30;;;;;;4977106;28;20435;-71
2022/09/24 05:05:49;;;;;;;6.10;4.80;;;16.90;91.30;;;;;;4923641;29;20454;-71
2022/09/24 05:08:20;;;;;;;5.87;5.00;;;17.00;91.30;;;;;;4954993;29;20498;-71
2022/09/24 05:10:47;;;;;;;4.73;4.33;;;16.90;91.20;;;;;;4957833;28;20972;-71
2022/09/24 05:13:15;;;;;;;5.50;4.27;;;16.90;91.30;;;;;;4942745;29;20468;-71
2022/09/24 05:15:46;;;;;;;5.10;4.60;;;16.90;91.30;;;;;;4957352;28;20859;-71
2022/09/24 05:18:14;;;;;;;6.93;4.80;;;16.90;91.20;;;;;;4962873;28;20436;-71
2022/09/24 05:20:40;;;;;;;9.07;5.33;;;16.90;91.20;;;;;;4958144;28;20514;-71
2022/09/24 05:23:09;;;;;;;6.97;5.03;;;16.90;91.10;;;;;;4943793;29;20485;-71
2022/09/24 05:27:07;;;;;;;6.60;5.03;;;16.90;91.20;;;;;;4955745;28;20453;-71
2022/09/24 05:28:26;;;;;;;5.77;4.87;;;16.90;91.20;;;;;;4971976;28;20509;-71
2022/09/24 05:30:58;;;;;;;5.90;4.77;;;16.90;91.20;;;;;;4972736;28;20437;-71
2022/09/24 05:33:25;;;;;;;6.20;5.07;;;16.90;91.20;;;;;;4960848;28;20436;-71
2022/09/24 05:35:56;;;;;;;5.07;4.57;;;16.90;91.20;;;;;;4950048;28;20546;-71
2022/09/24 05:38:31;;;;;;;5.70;4.63;;;16.90;91.20;;;;;;4958546;28;20858;-71
2022/09/24 05:40:57;;;;;;;9.03;5.07;;;16.90;91.20;;;;;;4945660;29;20433;-71
2022/09/24 05:43:30;;;;;;;5.17;4.40;;;16.90;91.30;;;;;;4955152;28;20424;-71
2022/09/24 05:45:57;;;;;;;6.07;4.87;;;16.90;91.30;;;;;;4941561;28;20453;-71
2022/09/24 05:48:24;;;;;;;5.33;4.83;;;16.90;91.20;;;;;;4941446;28;21057;-71
2022/09/24 05:50:54;;;;;;;5.23;4.70;;;16.90;91.20;;;;;;4956189;28;20871;-71
2022/09/24 05:53:21;;;;;;;5.43;4.60;;;16.90;91.20;;;;;;4952983;28;20441;-71
2022/09/24 05:55:52;;;;;;;5.33;4.83;;;16.90;91.30;;;;;;4969720;28;20453;-71
2022/09/24 05:58:25;;;;;;;4.90;4.30;;;16.90;91.30;;;;;;4957748;28;20469;-71
2022/09/24 06:01:12;;;;;;;7.40;4.80;;;16.90;91.30;;;;;;4930967;28;20428;-71
2022/09/24 06:03:38;;;;;;;5.30;4.80;;;16.80;91.30;;;;;;4959799;28;20467;-71
2022/09/24 06:06:06;;;;;;;6.30;5.63;;;16.80;91.30;;;;;;4989798;28;20439;-71
2022/09/24 06:08:38;;;;;;;5.00;4.30;;;16.80;91.30;;;;;;4955887;28;20523;-71
2022/09/24 06:11:07;;;;;;;4.97;4.13;;;16.80;91.30;;;;;;4974404;28;20412;-71
2022/09/24 06:13:33;;;;;;;5.20;4.50;;;16.80;91.30;;;;;;4970335;28;20429;-71
2022/09/24 06:16:08;;;;;;;5.23;4.73;;;16.80;91.20;;;;;;4945745;28;20471;-71
2022/09/24 06:18:38;;;;;;;6.60;5.43;;;16.80;91.30;;;;;;4956343;28;20422;-71
2022/09/24 06:21:09;;;;;;;6.60;4.87;;;16.80;91.30;;;;;;4974479;28;20443;-71
2022/09/24 06:23:36;;;;;;;5.67;5.07;;;16.80;91.30;;;;;;4960706;28;20503;-71
2022/09/24 06:26:06;;;;;;;7.63;5.40;;;16.80;91.30;;;;;;4938051;29;20444;-71
2022/09/24 06:28:35;;;;;;;5.20;4.37;;;16.80;91.30;;;;;;4950781;28;20455;-71
2022/09/24 06:31:05;;;;;;;4.80;4.27;;;16.80;91.30;;;;;;4957105;28;20409;-71
2022/09/24 06:33:34;;;;;;;5.47;4.90;;;16.80;91.30;;;;;;4944981;28;20504;-70
2022/09/24 06:36:01;;;;;;;5.50;4.43;;;16.80;91.30;;;;;;4956978;28;20444;-70
2022/09/24 06:38:28;;;;;;;6.03;4.80;;;16.80;91.30;;;;;;4962632;28;20504;-71
2022/09/24 06:41:04;;;;;;;5.90;5.10;;;16.80;91.30;;;;;;4943491;28;20858;-71
2022/09/24 06:43:33;;;;;;;5.80;5.23;;;16.80;91.30;;;;;;4926804;29;20433;-71
2022/09/24 06:45:59;;;;;;;6.20;4.90;;;16.80;91.30;;;;;;4950562;28;20465;-71
2022/09/24 06:48:30;;;;;;;5.43;4.80;;;16.80;91.30;;;;;;4952249;28;20841;-71
2022/09/24 06:50:59;;;;;;;6.03;4.80;;;16.80;91.30;;;;;;4953323;28;20769;-71
2022/09/24 06:53:25;;;;;;;5.43;4.90;;;16.80;91.30;;;;;;4966452;28;20531;-71
2022/09/24 06:55:54;;;;;;;6.17;5.47;;;16.80;91.30;;;;;;4940529;29;20461;-71
2022/09/24 06:58:23;;;;;;;6.87;5.27;;;16.80;91.30;;;;;;4935196;29;20442;-71
2022/09/24 07:01:01;;;;;;;6.70;5.17;;;16.80;91.30;;;;;;4928073;28;20458;-71
2022/09/24 07:03:29;;;;;;;7.10;5.60;;;16.80;91.30;;;;;;4953833;28;20447;-71
2022/09/24 07:05:55;;;;;;;6.50;5.90;;;16.80;91.30;;;;;;4963029;28;20457;-71
2022/09/24 07:08:26;;;;;;;7.97;5.40;;;16.80;91.30;;;;;;4947947;28;20485;-71
2022/09/24 07:10:57;;;;;;;8.00;5.97;;;16.80;91.30;;;;;;4969493;28;20416;-71
2022/09/24 07:13:25;;;;;;;7.63;5.30;;;16.80;91.30;;;;;;4954069;28;20439;-71
2022/09/24 07:15:51;;;;;;;5.30;4.80;;;16.80;91.30;;;;;;4965857;28;20455;-71
2022/09/24 07:18:20;;;;;;;6.07;5.47;;;16.80;91.30;;;;;;4957830;28;20438;-71
2022/09/24 07:20:57;;;;;;;4.90;4.27;;;16.80;91.30;;;;;;4925156;28;20446;-71
2022/09/24 07:23:26;;;;;;;7.40;5.20;;;16.80;91.30;;;;;;4954241;28;20447;-71
2022/09/24 07:25:57;;;;;;;8.37;5.60;;;16.80;91.30;;;;;;4953174;28;20881;-71
2022/09/24 07:28:24;;;;;;;6.33;5.37;;;16.80;91.30;;;;;;4956876;28;20515;-71
2022/09/24 07:30:59;;;;;;;6.20;5.60;;;16.80;91.30;;;;;;4956966;28;20816;-71
2022/09/24 07:33:27;;;;;;;6.60;5.47;;;16.80;91.30;;;;;;4953881;28;20413;-71
2022/09/24 07:35:53;;;;;;;6.13;5.03;;;16.80;91.30;;;;;;4949611;28;20453;-71
2022/09/24 07:38:19;;;;;;;5.30;4.80;;;16.80;91.30;;;;;;4947031;29;20540;-71
2022/09/24 07:40:47;;;;;;;6.47;5.20;;;16.80;91.40;;;;;;4934861;29;20848;-71
2022/09/24 07:43:15;;;;;;;6.40;5.30;;;16.80;91.30;;;;;;4962937;28;21559;-71
2022/09/24 07:45:44;;;;;;;6.30;5.53;;;16.80;91.30;;;;;;4937269;28;20466;-71
2022/09/24 07:48:14;;;;;;;5.63;5.07;;;16.80;91.30;;;;;;4941891;29;20851;-73
2022/09/24 07:50:42;;;;;;;5.83;4.87;;;16.80;91.30;;;;;;4934182;29;20428;-71
2022/09/24 07:53:13;;;;;;;7.70;5.93;;;16.80;91.30;;;;;;4944301;28;20448;-71
2022/09/24 07:55:42;;;;;;;6.70;6.00;;;16.80;91.30;;;;;;4970788;28;20438;-71
2022/09/24 07:58:15;;;;;;;7.30;6.17;;;16.80;91.40;;;;;;4952586;28;20509;-71
2022/09/24 08:00:41;;;;;;;6.90;5.03;;;16.80;91.40;;;;;;4951324;29;20417;-71
2022/09/24 08:03:08;;;;;;;7.10;5.67;;;16.80;91.40;;;;;;4951313;28;20469;-71
2022/09/24 08:05:45;;;;;;;6.00;5.40;;;16.80;91.50;;;;;;4969276;28;20443;-71
2022/09/24 08:08:14;;;;;;;6.50;5.90;;;16.80;91.50;;;;;;4935569;29;20465;-71
2022/09/24 08:10:42;;;;;;;6.47;5.80;;;16.80;91.50;;;;;;4941458;28;20437;-71
2022/09/24 08:13:08;;;;;;;7.27;5.53;;;16.80;91.50;;;;;;4965718;28;20443;-71
2022/09/24 08:15:34;;;;;;;7.70;6.00;;;16.80;91.50;;;;;;5015812;23;20430;-73
2022/09/24 08:18:06;;;;;;;6.03;5.37;;;16.80;91.50;;;;;;4952444;28;20451;-74
2022/09/24 08:20:40;;;;;;;7.70;6.07;;;16.80;91.50;;;;;;4965411;28;20454;-73
2022/09/24 08:23:11;;;;;;;6.67;5.60;;;16.80;91.50;;;;;;4955651;28;20417;-74
2022/09/24 08:25:42;;;;;;;6.60;5.90;;;16.80;91.50;;;;;;4962182;28;20470;-74
2022/09/24 08:28:11;;;;;;;6.33;5.73;;;16.80;91.50;;;;;;4938962;29;20464;-74
2022/09/24 08:30:39;;;;;;;6.30;5.70;;;16.80;91.50;;;;;;4964909;28;20441;-72
2022/09/24 08:33:07;;;;;;;9.83;6.10;;;16.80;91.50;;;;;;4955809;28;20848;-74
2022/09/24 08:35:34;;;;;;;9.43;7.70;;;16.80;91.50;;;;;;4939257;28;20476;-74
2022/09/24 08:38:04;;;;;;;9.70;8.10;;;16.90;91.60;;;;;;4956023;28;20442;-74
2022/09/24 08:40:41;;;;;;;9.50;7.30;;;16.90;91.60;;;;;;4930854;29;20444;-75
2022/09/24 08:43:37;;;;;;;7.53;6.73;;;16.90;91.70;;;;;;4938768;28;20918;-73
2022/09/24 08:49:41;;;;;;;7.43;6.70;;;16.90;91.70;;;;;;4969054;28;20449;-74
2022/09/24 08:52:42;;;;;;;7.03;6.33;;;16.90;91.70;;;;;;4952285;29;20420;-74
2022/09/24 08:55:34;;;;;;;9.73;6.90;;;16.90;91.70;;;;;;4959989;28;20456;-74
2022/09/24 08:58:07;;;;;;;7.17;6.47;;;16.90;91.70;;;;;;4965518;28;20421;-73
2022/09/24 09:01:05;;;;;;;7.33;6.63;;;16.90;91.80;;;;;;4955807;28;20390;-73
2022/09/24 09:03:40;;;;;;;8.10;7.30;;;16.90;91.80;;;;;;4959065;28;20489;-75
2022/09/24 09:06:29;;;;;;;8.40;7.20;;;16.90;91.90;;;;;;4953256;28;20441;-73
2022/09/24 09:09:01;;;;;;;8.50;7.60;;;16.90;91.90;;;;;;4933095;28;20986;-73
2022/09/24 09:11:31;;;;;;;8.57;7.77;;;16.90;91.90;;;;;;4939704;28;20491;-74
2022/09/24 09:14:13;;;;;;;9.30;7.83;;;16.90;92.00;;;;;;4940601;29;20921;-75
2022/09/24 09:16:50;;;;;;;8.03;6.90;;;16.90;92.00;;;;;;4959771;28;20514;-74
2022/09/24 09:19:17;;;;;;;7.50;6.63;;;17.00;92.10;;;;;;4945621;29;20421;-76
2022/09/24 09:21:56;;;;;;;7.30;6.60;;;17.00;92.00;;;;;;4938069;29;20403;-73
2022/09/24 09:24:34;;;;;;;8.97;8.07;;;17.00;91.90;;;;;;4963617;28;20417;-73
2022/09/24 09:27:00;;;;;;;8.13;7.20;;;17.00;92.00;;;;;;4961660;28;20499;-74
2022/09/24 09:29:29;;;;;;;10.90;8.00;;;17.00;91.90;;;;;;4975947;28;20497;-76
2022/09/24 09:32:22;;;;;;;9.73;8.27;;;17.00;91.90;;;;;;4970685;28;20458;-74
2022/09/24 09:34:57;;;;;;;9.80;7.33;;;17.00;92.30;;;;;;4960829;28;20975;-73
2022/09/24 09:37:38;;;;;;;9.40;8.60;;;17.00;91.90;;;;;;4964498;28;20858;-73
2022/09/24 09:40:30;;;;;;;9.60;7.60;;;17.00;91.90;;;;;;4962254;28;20429;-72
2022/09/24 09:43:23;;;;;;;8.93;8.13;;;17.10;92.00;;;;;;4960763;28;20450;-77
2022/09/24 09:46:12;;;;;;;8.53;7.73;;;17.00;92.00;;;;;;4968727;28;20800;-75
2022/09/24 09:49:09;;;;;;;9.40;7.77;;;17.10;92.20;;;;;;4955747;28;20524;-75
2022/09/24 09:51:45;;;;;;;9.40;8.03;;;17.10;92.20;;;;;;4955225;28;20950;-76
2022/09/24 09:54:11;;;;;;;10.57;9.33;;;17.10;92.10;;;;;;4955598;28;20414;-76
2022/09/24 09:56:49;;;;;;;8.70;7.90;;;17.10;92.20;;;;;;4970649;28;20439;-76
2022/09/24 09:59:22;;;;;;;8.97;8.10;;;17.10;92.30;;;;;;4940386;28;20411;-75
2022/09/24 10:01:54;;;;;;;8.47;7.70;;;17.10;92.30;;;;;;4961923;28;20976;-77
2022/09/24 10:04:40;;;;;;;8.80;7.83;;;17.10;92.20;;;;;;4974580;28;21048;-76
2022/09/24 10:07:11;;;;;;;9.13;7.43;;;17.20;92.00;;;;;;4967155;28;21150;-77
2022/09/24 10:09:38;;;;;;;9.53;8.23;;;17.10;91.80;;;;;;4972779;28;20420;-76
2022/09/24 10:12:13;;;;;;;9.00;7.67;;;17.20;91.70;;;;;;4963078;28;20464;-76
2022/09/24 10:14:39;;;;;;;9.73;8.83;;;17.20;91.80;;;;;;4974886;28;20477;-76
2022/09/24 10:17:08;;;;;;;9.83;8.80;;;17.20;91.90;;;;;;4974684;28;20530;-76
2022/09/24 10:19:37;;;;;;;8.90;8.00;;;17.20;91.90;;;;;;4943690;29;20446;-76
2022/09/24 10:22:31;;;;;;;8.13;7.43;;;17.30;91.80;;;;;;4935979;29;20844;-76
2022/09/24 10:24:59;;;;;;;9.13;8.23;;;17.30;91.80;;;;;;4962684;28;20516;-76
2022/09/24 10:27:36;;;;;;;13.00;8.40;;;17.30;91.70;;;;;;4958263;28;20902;-76
2022/09/24 10:30:33;;;;;;;8.90;7.77;;;17.30;91.70;;;;;;4959428;28;20846;-76
2022/09/24 10:33:04;;;;;;;10.07;8.60;;;17.30;91.70;;;;;;4939180;29;20501;-75
2022/09/24 10:35:37;;;;;;;11.27;8.93;;;17.30;91.60;;;;;;4962174;28;20788;-75
2022/09/24 10:38:23;;;;;;;11.23;8.20;;;17.40;91.70;;;;;;4962382;28;20838;-74
2022/09/24 10:40:54;;;;;;;8.83;7.93;;;17.30;91.50;;;;;;4935636;29;20469;-75
2022/09/24 10:43:21;;;;;;;8.53;7.37;;;17.40;91.50;;;;;;4935535;28;20920;-77
2022/09/24 10:46:02;;;;;;;9.07;8.17;;;17.40;91.40;;;;;;4961665;28;20453;-75
2022/09/24 10:49:00;;;;;;;9.43;7.73;;;17.40;91.70;;;;;;4940211;28;20982;-76
2022/09/24 10:51:35;;;;;;;9.60;8.07;;;17.40;91.40;;;;;;4973654;28;20953;-74
2022/09/24 10:54:21;;;;;;;8.40;7.50;;;17.40;91.40;;;;;;4968394;28;21009;-73
2022/09/24 10:56:52;;;;;;;8.87;7.10;;;17.40;91.30;;;;;;4938544;29;20421;-72
2022/09/24 10:59:20;;;;;;;9.03;8.10;;;17.40;91.20;;;;;;4940165;28;20430;-76
2022/09/24 11:02:10;;;;;;;8.53;7.60;;;17.40;91.20;;;;;;4938567;29;20423;-77
2022/09/24 11:04:58;;;;;;;8.47;7.60;;;17.40;91.10;;;;;;4935305;29;20832;-77
2022/09/24 11:07:26;;;;;;;9.07;8.10;;;17.50;91.10;;;;;;4938641;28;20485;-75
2022/09/24 11:10:17;;;;;;;8.87;7.70;;;17.40;91.10;;;;;;4963758;28;20422;-75
2022/09/24 11:13:05;;;;;;;10.90;8.90;;;17.50;91.10;;;;;;4952629;29;20429;-75
2022/09/24 11:15:52;;;;;;;8.03;7.27;;;17.50;91.10;;;;;;4935874;28;20468;-74
2022/09/24 11:18:53;;;;;;;7.30;6.60;;;17.50;91.00;;;;;;4954833;28;20840;-74
2022/09/24 11:21:30;;;;;;;8.80;7.70;;;17.50;91.00;;;;;;4956046;28;20460;-74
2022/09/24 11:24:19;;;;;;;8.60;7.80;;;17.50;90.90;;;;;;4960381;28;20444;-73
2022/09/24 11:27:10;;;;;;;9.00;8.00;;;17.50;91.00;;;;;;4952163;28;20455;-74
2022/09/24 11:29:54;;;;;;;7.80;7.00;;;17.50;91.00;;;;;;4925265;28;20449;-73
2022/09/24 11:32:28;;;;;;;8.70;7.83;;;17.50;91.00;;;;;;4952396;28;20793;-73
2022/09/24 11:35:19;;;;;;;9.10;6.67;;;17.50;91.00;;;;;;4952180;28;20477;-74
2022/09/24 11:38:08;;;;;;;8.97;6.93;;;17.50;90.90;;;;;;4970294;28;20440;-74
2022/09/24 11:40:50;;;;;;;7.90;6.80;;;17.50;90.90;;;;;;4935841;28;20449;-73
2022/09/24 11:43:23;;;;;;;9.57;7.10;;;17.50;90.90;;;;;;4953655;28;20429;-73
2022/09/24 11:46:30;;;;;;;7.57;6.43;;;17.50;91.00;;;;;;4938728;29;20449;-74
2022/09/24 11:49:24;;;;;;;8.20;7.23;;;17.60;91.20;;;;;;4960381;28;20451;-73
2022/09/24 11:52:19;;;;;;;7.53;6.70;;;17.50;91.00;;;;;;4934450;29;20481;-72
2022/09/24 11:54:57;;;;;;;7.20;6.50;;;17.50;91.10;;;;;;4951784;28;20484;-72
2022/09/24 11:57:30;;;;;;;7.67;6.80;;;17.60;91.20;;;;;;4969838;28;20528;-74
2022/09/24 12:00:00;;;;;;;8.57;7.43;;;17.60;91.80;;;;;;4952791;28;20450;-74
2022/09/24 12:02:49;;;;;;;6.63;5.93;;;17.60;91.50;;;;;;4951923;28;20469;-75
2022/09/24 12:05:45;;;;;;;8.90;6.97;;;17.60;91.40;;;;;;4936002;29;20974;-75
2022/09/24 12:08:31;;;;;;;8.60;7.07;;;17.60;91.50;;;;;;4955044;28;20469;-73
2022/09/24 12:11:07;;;;;;;7.83;6.63;;;17.50;91.50;;;;;;4967845;28;20463;-74
2022/09/24 12:14:23;;;;;;;7.77;7.07;;;17.60;91.70;;;;;;4973300;28;20409;-73
2022/09/24 12:16:58;;;;;;;8.23;6.87;;;17.60;91.70;;;;;;4933987;29;20485;-75
2022/09/24 12:19:45;;;;;;;7.50;6.47;;;17.60;91.70;;;;;;4963611;28;20468;-74
2022/09/24 12:22:12;;;;;;;7.70;6.70;;;17.60;91.60;;;;;;4917596;29;20478;-74
2022/09/24 12:24:52;;;;;;;6.80;6.20;;;17.60;91.40;;;;;;4954257;28;20828;-75
2022/09/24 12:27:34;;;;;;;7.73;6.90;;;17.60;91.40;;;;;;4934689;29;21021;-75
2022/09/24 12:33:40;;;;;;;7.33;6.03;;;17.60;91.30;;;;;;4942029;28;20441;-74
2022/09/24 12:36:26;;;;;;;7.47;6.77;;;17.60;91.20;;;;;;4930776;29;20449;-72
2022/09/24 12:39:05;;;;;;;8.03;6.50;;;17.60;91.20;;;;;;4954762;28;20543;-74
2022/09/24 12:41:58;;;;;;;8.40;6.90;;;17.60;91.20;;;;;;4963015;28;20433;-74
2022/09/24 12:44:49;;;;;;;7.53;6.80;;;17.70;91.20;;;;;;4952792;28;20521;-75
2022/09/24 12:47:32;;;;;;;8.43;7.57;;;17.70;91.40;;;;;;4969801;28;20552;-76
2022/09/24 12:50:07;;;;;;;9.33;8.07;;;17.70;91.40;;;;;;4958928;28;20477;-76
2022/09/24 12:52:33;;;;;;;7.87;6.90;;;17.70;91.40;;;;;;4956655;28;20423;-76
2022/09/24 12:55:01;;;;;;;8.40;7.37;;;17.60;91.40;;;;;;4955841;28;20890;-76
2022/09/24 12:57:43;;;;;;;9.20;8.30;;;17.70;91.30;;;;;;4940170;29;20522;-76
2022/09/24 13:00:31;;;;;;;9.23;8.33;;;17.70;91.30;;;;;;4963488;28;20916;-76
2022/09/24 13:02:59;;;;;;;9.00;8.07;;;17.70;91.30;;;;;;4941596;28;20436;-76
2022/09/24 13:05:31;;;;;;;9.40;8.50;;;17.70;91.30;;;;;;4957076;28;20786;-76
2022/09/24 13:08:19;;;;;;;10.83;9.13;;;17.70;91.30;;;;;;4971898;28;20500;-75
2022/09/24 13:11:21;;;;;;;10.40;8.90;;;17.70;91.30;;;;;;4952623;28;20800;-74
2022/09/24 13:14:06;;;;;;;9.67;8.73;;;17.70;91.30;;;;;;4972128;28;20551;-75
2022/09/24 13:16:41;;;;;;;8.90;8.10;;;17.70;91.30;;;;;;4974214;28;20507;-76
2022/09/24 13:19:43;;;;;;;9.57;8.57;;;17.70;91.70;;;;;;4947694;28;20557;-75
2022/09/24 13:22:29;;;;;;;9.70;8.00;;;17.70;91.20;;;;;;4933436;28;20447;-75
2022/09/24 13:25:08;;;;;;;12.03;10.53;;;17.70;91.20;;;;;;4958072;28;20483;-75
2022/09/24 13:27:40;;;;;;;8.10;7.13;;;17.70;91.30;;;;;;4974764;28;20524;-75
2022/09/24 13:30:36;;;;;;;9.40;8.47;;;17.80;91.30;;;;;;4946781;28;20434;-76
2022/09/24 13:33:09;;;;;;;9.57;8.57;;;17.80;91.40;;;;;;4973342;28;20440;-75
2022/09/24 13:35:54;;;;;;;10.07;9.03;;;17.80;91.60;;;;;;4960269;28;20483;-75